sensor_id;sensor_type;location;lat;lon;timestamp;P1;durP1;ratioP1;P2;durP2;ratioP2
438;SDS011;206;48.782;9.252;2022-08-01T00:00:32;4.83;;;2.40;;
438;SDS011;206;48.782;9.252;2022-08-01T00:02:58;4.40;;;2.80;;
438;SDS011;206;48.782;9.252;2022-08-01T00:05:23;4.37;;;2.10;;
438;SDS011;206;48.782;9.252;2022-08-01T00:07:49;2.97;;;2.60;;
438;SDS011;206;48.782;9.252;2022-08-01T00:10:15;5.80;;;2.60;;
438;SDS011;206;48.782;9.252;2022-08-01T00:12:42;4.17;;;2.90;;
438;SDS011;206;48.782;9.252;2022-08-01T00:15:09;3.57;;;2.40;;
438;SDS011;206;48.782;9.252;2022-08-01T00:17:37;2.13;;;1.97;;
438;SDS011;206;48.782;9.252;2022-08-01T00:20:04;4.60;;;2.43;;
438;SDS011;206;48.782;9.252;2022-08-01T00:22:31;2.73;;;2.30;;
438;SDS011;206;48.782;9.252;2022-08-01T00:24:57;4.00;;;2.80;;
438;SDS011;206;48.782;9.252;2022-08-01T00:27:23;3.37;;;2.53;;
438;SDS011;206;48.782;9.252;2022-08-01T00:29:49;2.77;;;2.30;;
438;SDS011;206;48.782;9.252;2022-08-01T00:32:14;4.30;;;2.50;;
438;SDS011;206;48.782;9.252;2022-08-01T00:34:40;3.13;;;2.63;;
438;SDS011;206;48.782;9.252;2022-08-01T00:37:06;2.33;;;2.13;;
438;SDS011;206;48.782;9.252;2022-08-01T00:39:31;3.70;;;2.30;;
438;SDS011;206;48.782;9.252;2022-08-01T00:41:58;2.73;;;2.53;;
438;SDS011;206;48.782;9.252;2022-08-01T00:44:24;4.37;;;2.60;;
438;SDS011;206;48.782;9.252;2022-08-01T00:46:50;3.63;;;2.70;;
438;SDS011;206;48.782;9.252;2022-08-01T00:49:16;2.83;;;2.47;;
438;SDS011;206;48.782;9.252;2022-08-01T00:51:42;3.43;;;2.77;;
438;SDS011;206;48.782;9.252;2022-08-01T00:54:07;3.17;;;2.97;;
438;SDS011;206;48.782;9.252;2022-08-01T00:56:33;3.07;;;2.97;;
438;SDS011;206;48.782;9.252;2022-08-01T00:58:59;4.27;;;2.90;;
438;SDS011;206;48.782;9.252;2022-08-01T01:01:25;2.90;;;2.30;;
438;SDS011;206;48.782;9.252;2022-08-01T01:03:51;3.30;;;2.40;;
438;SDS011;206;48.782;9.252;2022-08-01T01:17:37;2.30;;;2.10;;
438;SDS011;206;48.782;9.252;2022-08-01T01:20:13;2.57;;;2.37;;
438;SDS011;206;48.782;9.252;2022-08-01T01:22:46;2.87;;;2.67;;
438;SDS011;206;48.782;9.252;2022-08-01T01:30:31;3.23;;;3.03;;
438;SDS011;206;48.782;9.252;2022-08-01T01:33:02;3.50;;;3.00;;
438;SDS011;206;48.782;9.252;2022-08-01T01:35:38;3.13;;;2.93;;
438;SDS011;206;48.782;9.252;2022-08-01T01:38:14;5.07;;;3.63;;
438;SDS011;206;48.782;9.252;2022-08-01T01:40:42;3.33;;;2.90;;
438;SDS011;206;48.782;9.252;2022-08-01T01:43:10;3.07;;;2.90;;
438;SDS011;206;48.782;9.252;2022-08-01T01:45:37;3.40;;;3.20;;
438;SDS011;206;48.782;9.252;2022-08-01T01:48:03;3.63;;;3.13;;
438;SDS011;206;48.782;9.252;2022-08-01T01:50:31;3.20;;;2.80;;
438;SDS011;206;48.782;9.252;2022-08-01T01:52:57;3.60;;;2.83;;
438;SDS011;206;48.782;9.252;2022-08-01T01:55:25;4.43;;;3.10;;
438;SDS011;206;48.782;9.252;2022-08-01T01:57:51;5.60;;;3.80;;
438;SDS011;206;48.782;9.252;2022-08-01T02:00:18;6.87;;;3.23;;
438;SDS011;206;48.782;9.252;2022-08-01T02:02:44;4.17;;;2.47;;
438;SDS011;206;48.782;9.252;2022-08-01T02:05:11;4.17;;;2.67;;
438;SDS011;206;48.782;9.252;2022-08-01T02:07:37;4.43;;;3.03;;
438;SDS011;206;48.782;9.252;2022-08-01T02:10:05;7.40;;;3.47;;
438;SDS011;206;48.782;9.252;2022-08-01T02:12:35;2.90;;;2.70;;
438;SDS011;206;48.782;9.252;2022-08-01T02:15:03;5.30;;;2.93;;
438;SDS011;206;48.782;9.252;2022-08-01T02:17:30;3.07;;;2.87;;
438;SDS011;206;48.782;9.252;2022-08-01T02:19:56;4.47;;;2.90;;
438;SDS011;206;48.782;9.252;2022-08-01T02:22:27;3.00;;;2.67;;
438;SDS011;206;48.782;9.252;2022-08-01T02:25:20;3.20;;;3.00;;
438;SDS011;206;48.782;9.252;2022-08-01T02:27:54;2.50;;;2.40;;
438;SDS011;206;48.782;9.252;2022-08-01T02:30:26;3.93;;;2.87;;
438;SDS011;206;48.782;9.252;2022-08-01T02:33:00;3.57;;;3.40;;
438;SDS011;206;48.782;9.252;2022-08-01T02:35:32;2.77;;;2.57;;
438;SDS011;206;48.782;9.252;2022-08-01T02:38:03;4.20;;;2.90;;
438;SDS011;206;48.782;9.252;2022-08-01T02:40:32;4.50;;;3.20;;
438;SDS011;206;48.782;9.252;2022-08-01T02:43:00;4.03;;;3.40;;
438;SDS011;206;48.782;9.252;2022-08-01T02:45:28;5.17;;;3.20;;
438;SDS011;206;48.782;9.252;2022-08-01T02:47:57;6.70;;;3.27;;
438;SDS011;206;48.782;9.252;2022-08-01T02:50:26;3.70;;;2.93;;
438;SDS011;206;48.782;9.252;2022-08-01T02:52:54;3.50;;;3.30;;
438;SDS011;206;48.782;9.252;2022-08-01T02:55:22;3.30;;;3.10;;
438;SDS011;206;48.782;9.252;2022-08-01T02:57:48;2.80;;;2.60;;
438;SDS011;206;48.782;9.252;2022-08-01T03:00:17;3.70;;;3.30;;
438;SDS011;206;48.782;9.252;2022-08-01T03:02:43;6.50;;;3.60;;
438;SDS011;206;48.782;9.252;2022-08-01T03:05:11;2.50;;;2.23;;
438;SDS011;206;48.782;9.252;2022-08-01T03:07:39;2.87;;;2.67;;
438;SDS011;206;48.782;9.252;2022-08-01T03:10:06;2.50;;;2.30;;
438;SDS011;206;48.782;9.252;2022-08-01T03:12:33;4.90;;;2.97;;
438;SDS011;206;48.782;9.252;2022-08-01T03:15:00;4.20;;;3.43;;
438;SDS011;206;48.782;9.252;2022-08-01T03:17:28;3.27;;;3.10;;
438;SDS011;206;48.782;9.252;2022-08-01T03:19:56;3.33;;;2.63;;
438;SDS011;206;48.782;9.252;2022-08-01T03:22:24;4.13;;;3.03;;
438;SDS011;206;48.782;9.252;2022-08-01T03:24:53;3.77;;;3.60;;
438;SDS011;206;48.782;9.252;2022-08-01T03:27:21;3.77;;;3.60;;
438;SDS011;206;48.782;9.252;2022-08-01T03:29:49;10.60;;;3.60;;
438;SDS011;206;48.782;9.252;2022-08-01T03:32:17;3.40;;;3.20;;
438;SDS011;206;48.782;9.252;2022-08-01T03:34:44;5.50;;;3.90;;
438;SDS011;206;48.782;9.252;2022-08-01T03:40:00;3.37;;;3.17;;
438;SDS011;206;48.782;9.252;2022-08-01T03:42:47;3.97;;;3.60;;
438;SDS011;206;48.782;9.252;2022-08-01T03:45:15;3.37;;;3.17;;
438;SDS011;206;48.782;9.252;2022-08-01T03:47:48;5.97;;;3.63;;
438;SDS011;206;48.782;9.252;2022-08-01T03:50:17;3.00;;;2.80;;
438;SDS011;206;48.782;9.252;2022-08-01T03:52:46;3.90;;;3.27;;
438;SDS011;206;48.782;9.252;2022-08-01T03:55:13;3.03;;;2.70;;
438;SDS011;206;48.782;9.252;2022-08-01T03:57:41;3.70;;;3.50;;
438;SDS011;206;48.782;9.252;2022-08-01T04:00:09;4.27;;;3.13;;
438;SDS011;206;48.782;9.252;2022-08-01T04:02:36;3.57;;;3.37;;
438;SDS011;206;48.782;9.252;2022-08-01T04:05:02;3.00;;;2.80;;
438;SDS011;206;48.782;9.252;2022-08-01T04:07:29;3.60;;;2.70;;
438;SDS011;206;48.782;9.252;2022-08-01T04:09:56;4.33;;;3.67;;
438;SDS011;206;48.782;9.252;2022-08-01T04:12:22;4.20;;;2.90;;
438;SDS011;206;48.782;9.252;2022-08-01T04:14:48;3.60;;;2.90;;
438;SDS011;206;48.782;9.252;2022-08-01T04:17:14;3.77;;;2.73;;
438;SDS011;206;48.782;9.252;2022-08-01T04:19:41;3.70;;;2.97;;
438;SDS011;206;48.782;9.252;2022-08-01T04:22:08;3.27;;;3.13;;
438;SDS011;206;48.782;9.252;2022-08-01T04:24:40;4.63;;;3.33;;
438;SDS011;206;48.782;9.252;2022-08-01T04:27:12;3.00;;;2.40;;
438;SDS011;206;48.782;9.252;2022-08-01T04:29:42;3.13;;;2.93;;
438;SDS011;206;48.782;9.252;2022-08-01T04:32:10;4.70;;;3.47;;
438;SDS011;206;48.782;9.252;2022-08-01T04:34:39;8.73;;;3.07;;
438;SDS011;206;48.782;9.252;2022-08-01T04:37:10;3.43;;;3.20;;
438;SDS011;206;48.782;9.252;2022-08-01T04:39:37;2.70;;;2.53;;
438;SDS011;206;48.782;9.252;2022-08-01T04:42:06;4.23;;;3.33;;
438;SDS011;206;48.782;9.252;2022-08-01T04:44:32;2.87;;;2.60;;
438;SDS011;206;48.782;9.252;2022-08-01T04:46:59;6.43;;;2.97;;
438;SDS011;206;48.782;9.252;2022-08-01T04:49:28;2.60;;;2.40;;
438;SDS011;206;48.782;9.252;2022-08-01T04:51:56;4.40;;;3.13;;
438;SDS011;206;48.782;9.252;2022-08-01T04:54:28;4.40;;;3.20;;
438;SDS011;206;48.782;9.252;2022-08-01T04:56:55;2.43;;;2.23;;
438;SDS011;206;48.782;9.252;2022-08-01T04:59:27;3.30;;;2.63;;
438;SDS011;206;48.782;9.252;2022-08-01T05:02:15;4.27;;;3.17;;
438;SDS011;206;48.782;9.252;2022-08-01T05:04:43;6.50;;;2.87;;
438;SDS011;206;48.782;9.252;2022-08-01T05:07:10;2.90;;;2.73;;
438;SDS011;206;48.782;9.252;2022-08-01T05:09:37;5.10;;;2.87;;
438;SDS011;206;48.782;9.252;2022-08-01T05:12:06;6.07;;;4.37;;
438;SDS011;206;48.782;9.252;2022-08-01T05:14:33;8.87;;;4.23;;
438;SDS011;206;48.782;9.252;2022-08-01T05:16:59;6.53;;;4.70;;
438;SDS011;206;48.782;9.252;2022-08-01T05:19:28;6.30;;;4.60;;
438;SDS011;206;48.782;9.252;2022-08-01T05:21:55;7.30;;;4.07;;
438;SDS011;206;48.782;9.252;2022-08-01T05:24:21;6.73;;;3.70;;
438;SDS011;206;48.782;9.252;2022-08-01T05:26:47;3.33;;;2.57;;
438;SDS011;206;48.782;9.252;2022-08-01T05:29:14;8.03;;;4.10;;
438;SDS011;206;48.782;9.252;2022-08-01T05:31:40;4.00;;;3.43;;
438;SDS011;206;48.782;9.252;2022-08-01T05:34:05;6.00;;;3.50;;
438;SDS011;206;48.782;9.252;2022-08-01T05:36:31;5.43;;;3.80;;
438;SDS011;206;48.782;9.252;2022-08-01T05:38:56;3.13;;;3.00;;
438;SDS011;206;48.782;9.252;2022-08-01T05:41:22;6.43;;;4.43;;
438;SDS011;206;48.782;9.252;2022-08-01T05:43:48;6.97;;;4.23;;
438;SDS011;206;48.782;9.252;2022-08-01T05:46:13;8.67;;;3.90;;
438;SDS011;206;48.782;9.252;2022-08-01T05:48:39;4.63;;;4.33;;
438;SDS011;206;48.782;9.252;2022-08-01T05:51:04;4.87;;;3.23;;
438;SDS011;206;48.782;9.252;2022-08-01T05:53:30;6.63;;;3.63;;
438;SDS011;206;48.782;9.252;2022-08-01T05:55:59;4.90;;;3.67;;
438;SDS011;206;48.782;9.252;2022-08-01T05:58:26;3.70;;;3.30;;
438;SDS011;206;48.782;9.252;2022-08-01T06:00:51;2.93;;;2.60;;
438;SDS011;206;48.782;9.252;2022-08-01T06:03:17;3.90;;;3.30;;
438;SDS011;206;48.782;9.252;2022-08-01T06:05:43;9.03;;;2.73;;
438;SDS011;206;48.782;9.252;2022-08-01T06:08:09;4.00;;;3.10;;
438;SDS011;206;48.782;9.252;2022-08-01T06:10:35;6.00;;;3.10;;
438;SDS011;206;48.782;9.252;2022-08-01T06:13:00;3.87;;;3.50;;
438;SDS011;206;48.782;9.252;2022-08-01T06:15:28;6.03;;;3.97;;
438;SDS011;206;48.782;9.252;2022-08-01T06:17:55;4.23;;;3.07;;
438;SDS011;206;48.782;9.252;2022-08-01T06:20:21;2.77;;;2.57;;
438;SDS011;206;48.782;9.252;2022-08-01T06:22:46;4.07;;;2.97;;
438;SDS011;206;48.782;9.252;2022-08-01T06:25:12;2.57;;;1.93;;
438;SDS011;206;48.782;9.252;2022-08-01T06:27:37;6.37;;;3.00;;
438;SDS011;206;48.782;9.252;2022-08-01T06:30:03;2.47;;;1.93;;
438;SDS011;206;48.782;9.252;2022-08-01T06:32:29;3.73;;;1.93;;
438;SDS011;206;48.782;9.252;2022-08-01T06:34:56;3.27;;;1.67;;
438;SDS011;206;48.782;9.252;2022-08-01T06:37:22;3.20;;;1.87;;
438;SDS011;206;48.782;9.252;2022-08-01T06:39:48;2.07;;;1.60;;
438;SDS011;206;48.782;9.252;2022-08-01T06:42:14;2.70;;;1.77;;
438;SDS011;206;48.782;9.252;2022-08-01T06:44:40;1.70;;;1.60;;
438;SDS011;206;48.782;9.252;2022-08-01T06:47:06;2.73;;;1.50;;
438;SDS011;206;48.782;9.252;2022-08-01T06:49:31;2.70;;;1.93;;
438;SDS011;206;48.782;9.252;2022-08-01T06:51:57;4.03;;;1.77;;
438;SDS011;206;48.782;9.252;2022-08-01T06:54:23;2.17;;;1.80;;
438;SDS011;206;48.782;9.252;2022-08-01T06:56:48;3.40;;;3.20;;
438;SDS011;206;48.782;9.252;2022-08-01T06:59:14;3.23;;;1.70;;
438;SDS011;206;48.782;9.252;2022-08-01T07:01:39;2.00;;;1.50;;
438;SDS011;206;48.782;9.252;2022-08-01T07:04:06;1.90;;;1.43;;
438;SDS011;206;48.782;9.252;2022-08-01T07:06:32;1.97;;;1.33;;
438;SDS011;206;48.782;9.252;2022-08-01T07:08:57;2.77;;;1.63;;
438;SDS011;206;48.782;9.252;2022-08-01T07:11:23;1.67;;;1.60;;
438;SDS011;206;48.782;9.252;2022-08-01T07:13:49;3.90;;;2.30;;
438;SDS011;206;48.782;9.252;2022-08-01T07:16:14;2.77;;;1.13;;
438;SDS011;206;48.782;9.252;2022-08-01T07:18:41;1.60;;;1.47;;
438;SDS011;206;48.782;9.252;2022-08-01T07:21:07;3.40;;;1.50;;
438;SDS011;206;48.782;9.252;2022-08-01T07:23:33;1.83;;;1.57;;
438;SDS011;206;48.782;9.252;2022-08-01T07:25:59;1.83;;;1.80;;
438;SDS011;206;48.782;9.252;2022-08-01T07:28:26;3.30;;;2.10;;
438;SDS011;206;48.782;9.252;2022-08-01T07:30:52;4.07;;;1.60;;
438;SDS011;206;48.782;9.252;2022-08-01T07:33:18;1.97;;;1.70;;
438;SDS011;206;48.782;9.252;2022-08-01T07:35:44;3.37;;;1.63;;
438;SDS011;206;48.782;9.252;2022-08-01T07:38:09;1.77;;;1.40;;
438;SDS011;206;48.782;9.252;2022-08-01T07:40:35;2.20;;;1.10;;
438;SDS011;206;48.782;9.252;2022-08-01T07:43:01;3.10;;;1.90;;
438;SDS011;206;48.782;9.252;2022-08-01T07:45:27;1.40;;;1.20;;
438;SDS011;206;48.782;9.252;2022-08-01T07:47:52;3.40;;;2.00;;
438;SDS011;206;48.782;9.252;2022-08-01T07:50:18;5.43;;;1.50;;
438;SDS011;206;48.782;9.252;2022-08-01T07:52:44;2.50;;;1.70;;
438;SDS011;206;48.782;9.252;2022-08-01T07:55:10;10.50;;;2.10;;
438;SDS011;206;48.782;9.252;2022-08-01T07:57:37;2.57;;;1.30;;
438;SDS011;206;48.782;9.252;2022-08-01T08:00:03;3.50;;;1.87;;
438;SDS011;206;48.782;9.252;2022-08-01T08:02:31;1.90;;;1.80;;
438;SDS011;206;48.782;9.252;2022-08-01T08:04:56;3.53;;;1.77;;
438;SDS011;206;48.782;9.252;2022-08-01T08:07:22;2.17;;;1.20;;
438;SDS011;206;48.782;9.252;2022-08-01T08:09:48;4.40;;;2.13;;
438;SDS011;206;48.782;9.252;2022-08-01T08:12:13;2.63;;;1.53;;
438;SDS011;206;48.782;9.252;2022-08-01T08:14:39;2.77;;;1.87;;
438;SDS011;206;48.782;9.252;2022-08-01T08:17:05;3.03;;;2.37;;
438;SDS011;206;48.782;9.252;2022-08-01T08:19:31;1.70;;;1.67;;
438;SDS011;206;48.782;9.252;2022-08-01T08:21:58;2.47;;;2.33;;
438;SDS011;206;48.782;9.252;2022-08-01T08:24:24;3.60;;;1.73;;
438;SDS011;206;48.782;9.252;2022-08-01T08:26:52;3.40;;;1.83;;
438;SDS011;206;48.782;9.252;2022-08-01T08:29:20;4.10;;;1.90;;
438;SDS011;206;48.782;9.252;2022-08-01T08:31:47;1.90;;;1.80;;
438;SDS011;206;48.782;9.252;2022-08-01T08:34:13;3.20;;;2.10;;
438;SDS011;206;48.782;9.252;2022-08-01T08:36:39;4.50;;;1.70;;
438;SDS011;206;48.782;9.252;2022-08-01T08:39:05;3.17;;;1.70;;
438;SDS011;206;48.782;9.252;2022-08-01T08:41:33;4.20;;;2.20;;
438;SDS011;206;48.782;9.252;2022-08-01T08:44:03;3.07;;;2.60;;
438;SDS011;206;48.782;9.252;2022-08-01T08:46:31;2.40;;;2.20;;
438;SDS011;206;48.782;9.252;2022-08-01T08:49:01;2.50;;;2.00;;
438;SDS011;206;48.782;9.252;2022-08-01T08:51:30;2.80;;;1.50;;
438;SDS011;206;48.782;9.252;2022-08-01T08:53:58;2.97;;;1.70;;
438;SDS011;206;48.782;9.252;2022-08-01T08:56:25;2.70;;;1.87;;
438;SDS011;206;48.782;9.252;2022-08-01T08:58:54;2.83;;;2.27;;
438;SDS011;206;48.782;9.252;2022-08-01T09:01:20;8.67;;;3.00;;
438;SDS011;206;48.782;9.252;2022-08-01T09:03:46;6.90;;;2.90;;
438;SDS011;206;48.782;9.252;2022-08-01T09:06:12;3.57;;;2.67;;
438;SDS011;206;48.782;9.252;2022-08-01T09:08:39;6.20;;;3.00;;
438;SDS011;206;48.782;9.252;2022-08-01T09:11:06;15.97;;;3.20;;
438;SDS011;206;48.782;9.252;2022-08-01T09:13:31;5.10;;;4.53;;
438;SDS011;206;48.782;9.252;2022-08-01T09:15:57;4.77;;;3.87;;
438;SDS011;206;48.782;9.252;2022-08-01T09:18:35;10.23;;;4.07;;
438;SDS011;206;48.782;9.252;2022-08-01T09:23:53;5.10;;;3.70;;
438;SDS011;206;48.782;9.252;2022-08-01T09:26:20;7.60;;;5.20;;
438;SDS011;206;48.782;9.252;2022-08-01T09:28:54;5.43;;;4.50;;
438;SDS011;206;48.782;9.252;2022-08-01T09:31:20;9.70;;;5.10;;
438;SDS011;206;48.782;9.252;2022-08-01T09:33:58;4.50;;;4.27;;
438;SDS011;206;48.782;9.252;2022-08-01T09:36:48;3.77;;;3.37;;
438;SDS011;206;48.782;9.252;2022-08-01T09:39:19;5.43;;;3.67;;
438;SDS011;206;48.782;9.252;2022-08-01T09:41:46;4.10;;;3.90;;
438;SDS011;206;48.782;9.252;2022-08-01T09:44:13;5.87;;;4.70;;
438;SDS011;206;48.782;9.252;2022-08-01T09:49:35;4.43;;;4.13;;
438;SDS011;206;48.782;9.252;2022-08-01T09:52:25;3.93;;;3.77;;
438;SDS011;206;48.782;9.252;2022-08-01T09:54:58;12.70;;;4.60;;
438;SDS011;206;48.782;9.252;2022-08-01T09:57:26;5.93;;;3.77;;
438;SDS011;206;48.782;9.252;2022-08-01T09:59:53;6.20;;;3.57;;
438;SDS011;206;48.782;9.252;2022-08-01T10:05:03;3.93;;;3.67;;
438;SDS011;206;48.782;9.252;2022-08-01T10:07:30;4.10;;;3.50;;
438;SDS011;206;48.782;9.252;2022-08-01T10:10:08;4.10;;;3.63;;
438;SDS011;206;48.782;9.252;2022-08-01T10:12:35;4.27;;;3.80;;
438;SDS011;206;48.782;9.252;2022-08-01T10:15:02;11.27;;;5.70;;
438;SDS011;206;48.782;9.252;2022-08-01T10:17:29;14.50;;;8.00;;
438;SDS011;206;48.782;9.252;2022-08-01T10:19:55;14.90;;;6.03;;
438;SDS011;206;48.782;9.252;2022-08-01T10:22:22;5.97;;;4.23;;
438;SDS011;206;48.782;9.252;2022-08-01T10:24:49;5.53;;;3.93;;
438;SDS011;206;48.782;9.252;2022-08-01T10:27:20;3.93;;;3.80;;
438;SDS011;206;48.782;9.252;2022-08-01T10:32:19;3.43;;;3.23;;
438;SDS011;206;48.782;9.252;2022-08-01T10:34:46;9.03;;;4.03;;
438;SDS011;206;48.782;9.252;2022-08-01T10:37:14;4.93;;;3.97;;
438;SDS011;206;48.782;9.252;2022-08-01T10:39:40;4.00;;;3.80;;
438;SDS011;206;48.782;9.252;2022-08-01T10:42:05;5.40;;;3.53;;
438;SDS011;206;48.782;9.252;2022-08-01T10:44:34;3.83;;;3.63;;
438;SDS011;206;48.782;9.252;2022-08-01T10:47:11;7.03;;;3.30;;
438;SDS011;206;48.782;9.252;2022-08-01T10:49:41;2.60;;;2.40;;
438;SDS011;206;48.782;9.252;2022-08-01T10:52:21;4.40;;;3.00;;
438;SDS011;206;48.782;9.252;2022-08-01T10:54:47;3.40;;;2.93;;
438;SDS011;206;48.782;9.252;2022-08-01T10:57:13;5.00;;;2.93;;
438;SDS011;206;48.782;9.252;2022-08-01T10:59:49;3.73;;;3.10;;
438;SDS011;206;48.782;9.252;2022-08-01T11:02:25;3.23;;;2.50;;
438;SDS011;206;48.782;9.252;2022-08-01T11:05:01;2.90;;;2.10;;
438;SDS011;206;48.782;9.252;2022-08-01T11:07:47;3.37;;;2.90;;
438;SDS011;206;48.782;9.252;2022-08-01T11:13:05;3.63;;;3.43;;
438;SDS011;206;48.782;9.252;2022-08-01T11:15:36;3.33;;;3.13;;
438;SDS011;206;48.782;9.252;2022-08-01T11:20:57;2.57;;;2.37;;
438;SDS011;206;48.782;9.252;2022-08-01T11:23:26;6.10;;;2.80;;
438;SDS011;206;48.782;9.252;2022-08-01T11:28:19;3.80;;;3.30;;
438;SDS011;206;48.782;9.252;2022-08-01T11:30:47;4.30;;;2.63;;
438;SDS011;206;48.782;9.252;2022-08-01T11:33:14;3.30;;;2.60;;
438;SDS011;206;48.782;9.252;2022-08-01T11:38:35;2.37;;;2.17;;
438;SDS011;206;48.782;9.252;2022-08-01T11:52:01;5.40;;;2.47;;
438;SDS011;206;48.782;9.252;2022-08-01T11:54:33;3.63;;;3.03;;
438;SDS011;206;48.782;9.252;2022-08-01T11:57:03;2.30;;;2.03;;
438;SDS011;206;48.782;9.252;2022-08-01T11:59:39;2.70;;;2.53;;
438;SDS011;206;48.782;9.252;2022-08-01T12:04:59;2.30;;;2.10;;
438;SDS011;206;48.782;9.252;2022-08-01T12:07:30;3.10;;;2.83;;
438;SDS011;206;48.782;9.252;2022-08-01T12:10:07;8.73;;;3.60;;
438;SDS011;206;48.782;9.252;2022-08-01T12:12:36;4.83;;;3.77;;
438;SDS011;206;48.782;9.252;2022-08-01T12:15:08;3.93;;;2.80;;
438;SDS011;206;48.782;9.252;2022-08-01T12:17:39;2.57;;;2.37;;
438;SDS011;206;48.782;9.252;2022-08-01T12:20:07;3.20;;;2.40;;
438;SDS011;206;48.782;9.252;2022-08-01T12:22:37;2.20;;;2.00;;
438;SDS011;206;48.782;9.252;2022-08-01T12:25:10;2.57;;;2.37;;
438;SDS011;206;48.782;9.252;2022-08-01T12:27:38;2.93;;;2.40;;
438;SDS011;206;48.782;9.252;2022-08-01T12:30:06;4.80;;;3.43;;
438;SDS011;206;48.782;9.252;2022-08-01T12:32:35;3.93;;;2.10;;
438;SDS011;206;48.782;9.252;2022-08-01T12:35:03;2.60;;;2.40;;
438;SDS011;206;48.782;9.252;2022-08-01T12:37:31;2.40;;;2.20;;
438;SDS011;206;48.782;9.252;2022-08-01T12:40:01;3.70;;;2.73;;
438;SDS011;206;48.782;9.252;2022-08-01T12:42:36;2.97;;;2.83;;
438;SDS011;206;48.782;9.252;2022-08-01T12:45:05;11.57;;;2.57;;
438;SDS011;206;48.782;9.252;2022-08-01T12:47:36;3.43;;;3.23;;
438;SDS011;206;48.782;9.252;2022-08-01T12:50:05;8.80;;;2.73;;
438;SDS011;206;48.782;9.252;2022-08-01T12:52:42;4.43;;;2.30;;
438;SDS011;206;48.782;9.252;2022-08-01T12:55:15;4.60;;;2.70;;
438;SDS011;206;48.782;9.252;2022-08-01T12:57:46;3.83;;;2.37;;
438;SDS011;206;48.782;9.252;2022-08-01T13:03:01;3.00;;;2.33;;
438;SDS011;206;48.782;9.252;2022-08-01T13:05:40;2.60;;;2.40;;
438;SDS011;206;48.782;9.252;2022-08-01T13:08:14;3.20;;;2.40;;
438;SDS011;206;48.782;9.252;2022-08-01T13:10:44;2.43;;;2.23;;
438;SDS011;206;48.782;9.252;2022-08-01T13:13:10;2.50;;;2.30;;
438;SDS011;206;48.782;9.252;2022-08-01T13:15:37;3.47;;;2.60;;
438;SDS011;206;48.782;9.252;2022-08-01T13:21:17;2.57;;;2.37;;
438;SDS011;206;48.782;9.252;2022-08-01T13:26:44;2.83;;;2.63;;
438;SDS011;206;48.782;9.252;2022-08-01T13:29:22;2.53;;;2.30;;
438;SDS011;206;48.782;9.252;2022-08-01T13:32:19;2.27;;;1.90;;
438;SDS011;206;48.782;9.252;2022-08-01T13:34:46;2.60;;;2.10;;
438;SDS011;206;48.782;9.252;2022-08-01T13:37:12;3.90;;;2.23;;
438;SDS011;206;48.782;9.252;2022-08-01T13:39:38;4.03;;;2.80;;
438;SDS011;206;48.782;9.252;2022-08-01T13:42:13;6.97;;;2.43;;
438;SDS011;206;48.782;9.252;2022-08-01T13:44:40;11.83;;;2.70;;
438;SDS011;206;48.782;9.252;2022-08-01T13:47:06;3.03;;;2.20;;
438;SDS011;206;48.782;9.252;2022-08-01T13:49:33;3.00;;;2.47;;
438;SDS011;206;48.782;9.252;2022-08-01T13:51:59;3.33;;;2.43;;
438;SDS011;206;48.782;9.252;2022-08-01T13:54:26;9.63;;;1.90;;
438;SDS011;206;48.782;9.252;2022-08-01T13:56:52;2.47;;;2.27;;
438;SDS011;206;48.782;9.252;2022-08-01T13:59:18;2.20;;;2.00;;
438;SDS011;206;48.782;9.252;2022-08-01T14:01:44;2.47;;;1.97;;
438;SDS011;206;48.782;9.252;2022-08-01T14:04:11;9.53;;;2.70;;
438;SDS011;206;48.782;9.252;2022-08-01T14:06:36;2.83;;;2.67;;
438;SDS011;206;48.782;9.252;2022-08-01T14:09:03;1.53;;;1.43;;
438;SDS011;206;48.782;9.252;2022-08-01T14:11:29;4.00;;;1.90;;
438;SDS011;206;48.782;9.252;2022-08-01T14:13:54;3.53;;;2.60;;
438;SDS011;206;48.782;9.252;2022-08-01T14:16:20;2.30;;;1.83;;
438;SDS011;206;48.782;9.252;2022-08-01T14:18:46;2.57;;;2.40;;
438;SDS011;206;48.782;9.252;2022-08-01T14:21:12;3.33;;;2.87;;
438;SDS011;206;48.782;9.252;2022-08-01T14:23:38;2.50;;;2.03;;
438;SDS011;206;48.782;9.252;2022-08-01T14:26:03;3.67;;;2.20;;
438;SDS011;206;48.782;9.252;2022-08-01T14:28:29;2.80;;;2.30;;
438;SDS011;206;48.782;9.252;2022-08-01T14:30:58;2.50;;;2.27;;
438;SDS011;206;48.782;9.252;2022-08-01T14:33:24;3.33;;;1.80;;
438;SDS011;206;48.782;9.252;2022-08-01T14:35:50;5.50;;;2.50;;
438;SDS011;206;48.782;9.252;2022-08-01T14:38:15;3.17;;;2.10;;
438;SDS011;206;48.782;9.252;2022-08-01T14:40:41;2.90;;;2.07;;
438;SDS011;206;48.782;9.252;2022-08-01T14:43:07;4.50;;;2.50;;
438;SDS011;206;48.782;9.252;2022-08-01T14:45:33;2.67;;;2.53;;
438;SDS011;206;48.782;9.252;2022-08-01T14:47:58;5.60;;;2.50;;
438;SDS011;206;48.782;9.252;2022-08-01T14:50:25;2.50;;;2.33;;
438;SDS011;206;48.782;9.252;2022-08-01T14:52:53;2.50;;;2.30;;
438;SDS011;206;48.782;9.252;2022-08-01T14:55:19;4.23;;;2.33;;
438;SDS011;206;48.782;9.252;2022-08-01T14:57:48;3.80;;;2.63;;
438;SDS011;206;48.782;9.252;2022-08-01T15:00:15;3.90;;;2.50;;
438;SDS011;206;48.782;9.252;2022-08-01T15:02:41;2.97;;;1.93;;
438;SDS011;206;48.782;9.252;2022-08-01T15:05:07;3.63;;;2.23;;
438;SDS011;206;48.782;9.252;2022-08-01T15:07:34;4.90;;;2.10;;
438;SDS011;206;48.782;9.252;2022-08-01T15:10:00;3.50;;;2.20;;
438;SDS011;206;48.782;9.252;2022-08-01T15:12:26;3.30;;;1.80;;
438;SDS011;206;48.782;9.252;2022-08-01T15:14:51;2.60;;;2.47;;
438;SDS011;206;48.782;9.252;2022-08-01T15:17:21;6.30;;;2.30;;
438;SDS011;206;48.782;9.252;2022-08-01T15:19:54;1.90;;;1.53;;
438;SDS011;206;48.782;9.252;2022-08-01T15:22:20;3.57;;;1.90;;
438;SDS011;206;48.782;9.252;2022-08-01T15:24:47;4.50;;;1.83;;
438;SDS011;206;48.782;9.252;2022-08-01T15:27:13;3.57;;;2.00;;
438;SDS011;206;48.782;9.252;2022-08-01T15:29:39;4.13;;;2.40;;
438;SDS011;206;48.782;9.252;2022-08-01T15:32:05;2.40;;;2.00;;
438;SDS011;206;48.782;9.252;2022-08-01T15:34:31;1.80;;;1.60;;
438;SDS011;206;48.782;9.252;2022-08-01T15:36:58;2.67;;;2.10;;
438;SDS011;206;48.782;9.252;2022-08-01T15:39:24;1.90;;;1.80;;
438;SDS011;206;48.782;9.252;2022-08-01T15:41:50;2.17;;;1.70;;
438;SDS011;206;48.782;9.252;2022-08-01T15:44:15;3.73;;;2.00;;
438;SDS011;206;48.782;9.252;2022-08-01T15:46:48;2.57;;;2.20;;
438;SDS011;206;48.782;9.252;2022-08-01T15:49:14;3.63;;;1.60;;
438;SDS011;206;48.782;9.252;2022-08-01T15:51:40;1.60;;;1.50;;
438;SDS011;206;48.782;9.252;2022-08-01T15:54:06;3.10;;;2.13;;
438;SDS011;206;48.782;9.252;2022-08-01T15:56:32;3.70;;;1.87;;
438;SDS011;206;48.782;9.252;2022-08-01T15:58:58;2.37;;;2.20;;
438;SDS011;206;48.782;9.252;2022-08-01T16:01:24;1.90;;;1.80;;
438;SDS011;206;48.782;9.252;2022-08-01T16:03:53;2.17;;;1.80;;
438;SDS011;206;48.782;9.252;2022-08-01T16:06:20;2.60;;;2.10;;
438;SDS011;206;48.782;9.252;2022-08-01T16:08:45;2.50;;;2.13;;
438;SDS011;206;48.782;9.252;2022-08-01T16:11:11;2.77;;;1.77;;
438;SDS011;206;48.782;9.252;2022-08-01T16:13:37;2.80;;;2.23;;
438;SDS011;206;48.782;9.252;2022-08-01T16:16:03;3.00;;;2.03;;
438;SDS011;206;48.782;9.252;2022-08-01T16:18:29;3.30;;;2.10;;
438;SDS011;206;48.782;9.252;2022-08-01T16:20:55;1.83;;;1.57;;
438;SDS011;206;48.782;9.252;2022-08-01T16:23:23;1.70;;;1.60;;
438;SDS011;206;48.782;9.252;2022-08-01T16:25:49;1.73;;;1.50;;
438;SDS011;206;48.782;9.252;2022-08-01T16:28:15;1.80;;;1.70;;
438;SDS011;206;48.782;9.252;2022-08-01T16:30:41;1.57;;;1.50;;
438;SDS011;206;48.782;9.252;2022-08-01T16:33:07;5.10;;;1.63;;
438;SDS011;206;48.782;9.252;2022-08-01T16:35:33;2.70;;;1.43;;
438;SDS011;206;48.782;9.252;2022-08-01T16:37:59;2.80;;;1.50;;
438;SDS011;206;48.782;9.252;2022-08-01T16:40:24;5.13;;;1.90;;
438;SDS011;206;48.782;9.252;2022-08-01T16:42:50;1.57;;;1.40;;
438;SDS011;206;48.782;9.252;2022-08-01T16:45:15;1.67;;;1.60;;
438;SDS011;206;48.782;9.252;2022-08-01T16:47:45;1.30;;;1.20;;
438;SDS011;206;48.782;9.252;2022-08-01T16:50:11;2.33;;;1.63;;
438;SDS011;206;48.782;9.252;2022-08-01T16:52:36;2.70;;;1.70;;